Time;durP1;ratioP1;P1;durP2;ratioP2;P2;SDS_P1;SDS_P2;PMS_P1;PMS_P2;Temp;Humidity;BMP_temperature;BMP_pressure;BME280_temperature;BME280_humidity;BME280_pressure;Samples;Min_cycle;Max_cycle;Signal;HPM_P1;HPM_P2
2023/04/15 00:00:41;;;;;;;3.65;2.65;;;7.00;99.90;;;;;;5052658;28;20113;-89
2023/04/15 00:03:07;;;;;;;;;;;7.00;99.90;;;;;;5051418;28;20121;-88
2023/04/15 00:05:32;;;;;;;4.00;2.40;;;7.00;99.90;;;;;;5052485;28;19952;-88
2023/04/15 00:08:00;;;;;;;;;;;7.00;99.90;;;;;;5052874;28;20056;-88
2023/04/15 00:10:26;;;;;;;2.92;1.33;;;7.20;99.90;;;;;;5052570;28;19970;-88
2023/04/15 00:12:51;;;;;;;;;;;7.20;99.90;;;;;;5052804;28;20052;-87
2023/04/15 00:15:18;;;;;;;4.18;1.85;;;7.20;99.90;;;;;;5052890;28;19912;-88
2023/04/15 00:17:43;;;;;;;2.58;1.30;;;7.20;99.90;;;;;;5052179;28;20032;-89
2023/04/15 00:20:09;;;;;;;;;;;7.30;99.90;;;;;;5052261;28;20382;-88
2023/04/15 00:22:35;;;;;;;2.55;1.48;;;7.30;99.90;;;;;;5050376;28;19967;-89
2023/04/15 00:25:01;;;;;;;;;;;7.20;99.90;;;;;;5051188;28;20116;-89
2023/04/15 00:27:27;;;;;;;4.35;1.20;;;7.20;99.90;;;;;;5052307;28;20276;-88
2023/04/15 00:29:52;;;;;;;;;;;7.20;99.90;;;;;;5052545;28;20017;-88
2023/04/15 00:32:19;;;;;;;2.42;1.42;;;7.20;99.90;;;;;;5052043;28;19916;-88
2023/04/15 00:34:45;;;;;;;2.22;1.33;;;7.10;99.90;;;;;;5052108;28;20417;-88
2023/04/15 00:37:10;;;;;;;;;;;7.10;99.90;;;;;;5052708;28;20086;-89
2023/04/15 00:39:36;;;;;;;2.53;1.25;;;7.00;99.90;;;;;;5052277;28;19905;-88
2023/04/15 00:42:03;;;;;;;;;;;7.00;99.90;;;;;;5053596;28;20025;-88
2023/04/15 00:44:29;;;;;;;2.10;1.08;;;7.00;99.90;;;;;;5051704;28;19911;-88
2023/04/15 00:46:55;;;;;;;;;;;7.00;99.90;;;;;;5049854;28;20070;-88
2023/04/15 00:49:21;;;;;;;1.02;0.50;;;7.00;99.90;;;;;;5051679;28;19904;-89
2023/04/15 00:51:47;;;;;;;1.23;0.68;;;7.00;99.90;;;;;;5051410;28;20044;-88
2023/04/15 00:54:13;;;;;;;;;;;7.00;99.90;;;;;;5051990;28;20025;-88
2023/04/15 00:56:39;;;;;;;1.75;0.50;;;7.10;99.90;;;;;;5051840;28;19950;-89
2023/04/15 00:59:06;;;;;;;2.05;0.55;;;7.20;99.90;;;;;;5052020;28;20017;-88
2023/04/15 01:01:34;;;;;;;2.05;0.70;;;7.20;99.90;;;;;;5051756;28;20021;-89
2023/04/15 01:04:00;;;;;;;1.02;0.40;;;7.20;99.90;;;;;;5051608;28;20047;-88
2023/04/15 01:06:26;;;;;;;;;;;7.20;99.90;;;;;;5052002;28;20544;-89
2023/04/15 01:08:56;;;;;;;0.80;0.38;;;7.30;99.90;;;;;;5051422;28;19940;-88
2023/04/15 01:11:22;;;;;;;0.93;0.35;;;7.30;99.90;;;;;;5051485;28;20064;-89
2023/04/15 01:13:49;;;;;;;1.20;0.40;;;7.30;99.90;;;;;;5051766;28;20070;-87
2023/04/15 01:16:16;;;;;;;1.65;0.47;;;7.30;99.90;;;;;;5051605;28;20028;-89
2023/04/15 01:18:42;;;;;;;2.22;0.98;;;7.30;99.90;;;;;;5051564;28;20013;-89
2023/04/15 01:21:07;;;;;;;;;;;7.30;99.90;;;;;;5051806;28;20640;-88
2023/04/15 01:23:39;;;;;;;1.20;0.40;;;7.40;99.90;;;;;;5051447;28;20345;-88
2023/04/15 01:26:07;;;;;;;0.50;0.40;;;7.40;99.90;;;;;;5051484;28;20024;-88
2023/04/15 01:28:34;;;;;;;1.67;0.40;;;7.40;99.90;;;;;;5051932;28;20492;-89
2023/04/15 01:31:20;;;;;;;1.27;0.60;;;7.40;99.90;;;;;;5051284;28;20040;-88
2023/04/15 01:33:46;;;;;;;3.00;0.55;;;7.40;99.90;;;;;;5055215;28;20044;-88
2023/04/15 01:36:12;;;;;;;;;;;7.40;99.90;;;;;;5055648;28;20029;-89
2023/04/15 01:38:38;;;;;;;2.38;0.60;;;7.40;99.90;;;;;;5055348;28;19905;-88
2023/04/15 01:41:05;;;;;;;;;;;7.40;99.90;;;;;;5055650;28;20025;-88
2023/04/15 01:43:31;;;;;;;1.02;0.45;;;7.40;99.90;;;;;;5056174;28;20412;-88
2023/04/15 01:45:56;;;;;;;;;;;7.40;99.90;;;;;;5054101;28;20132;-88
2023/04/15 01:48:22;;;;;;;4.18;0.40;;;7.60;99.90;;;;;;5055429;28;19916;-89
2023/04/15 01:50:48;;;;;;;;;;;7.70;99.90;;;;;;5055231;28;20127;-88
2023/04/15 01:53:14;;;;;;;3.22;0.73;;;7.70;99.90;;;;;;5055038;28;19931;-88
2023/04/15 01:55:40;;;;;;;1.35;0.63;;;7.60;99.90;;;;;;5055729;28;20028;-89
2023/04/15 01:58:06;;;;;;;;;;;7.50;99.90;;;;;;5055075;28;20024;-87
2023/04/15 02:00:32;;;;;;;4.75;0.70;;;7.60;99.90;;;;;;5054959;28;20483;-89
2023/04/15 02:02:58;;;;;;;;;;;7.40;99.90;;;;;;5055055;28;20025;-88
2023/04/15 02:05:24;;;;;;;1.85;0.93;;;7.40;99.90;;;;;;5055818;28;19905;-89
2023/04/15 02:07:50;;;;;;;4.25;1.35;;;7.30;99.90;;;;;;5054715;28;20409;-88
2023/04/15 02:10:16;;;;;;;;;;;7.20;99.90;;;;;;5055222;28;20119;-89
2023/04/15 02:12:41;;;;;;;3.45;1.92;;;7.30;99.90;;;;;;5054963;28;19955;-88
2023/04/15 02:15:09;;;;;;;2.72;1.38;;;7.20;99.90;;;;;;5054522;28;20028;-89
2023/04/15 02:17:35;;;;;;;3.17;1.85;;;7.20;99.90;;;;;;5054619;28;20036;-89
2023/04/15 02:20:01;;;;;;;2.92;2.17;;;7.30;99.90;;;;;;5054500;28;20029;-87
2023/04/15 02:22:28;;;;;;;5.30;3.60;;;7.30;99.90;;;;;;5054394;28;20048;-89
2023/04/15 02:24:53;;;;;;;4.78;3.22;;;7.50;99.90;;;;;;5054198;28;20036;-88
2023/04/15 02:27:19;;;;;;;;;;;7.60;99.90;;;;;;5054815;28;20397;-88
2023/04/15 02:29:45;;;;;;;6.60;4.65;;;7.70;99.90;;;;;;5054465;28;19909;-88
2023/04/15 02:32:12;;;;;;;5.05;3.90;;;7.80;99.90;;;;;;5054900;28;20037;-88
2023/04/15 02:34:41;;;;;;;6.43;4.85;;;7.80;99.90;;;;;;5053950;28;20067;-89
2023/04/15 02:37:12;;;;;;;6.07;4.38;;;7.80;99.90;;;;;;5052016;28;20029;-89
2023/04/15 02:39:37;;;;;;;6.82;4.53;;;7.80;99.90;;;;;;5055889;28;20089;-88
2023/04/15 02:42:04;;;;;;;;;;;8.10;99.90;;;;;;5054826;28;20068;-87
2023/04/15 02:44:31;;;;;;;6.13;4.05;;;8.20;99.90;;;;;;5053566;28;19911;-88
2023/04/15 02:46:57;;;;;;;9.40;4.72;;;8.30;99.90;;;;;;5054086;28;20029;-89
2023/04/15 02:49:24;;;;;;;7.70;4.88;;;8.30;99.90;;;;;;5054213;28;20041;-89
2023/04/15 02:51:50;;;;;;;6.28;4.68;;;8.30;99.90;;;;;;5053466;28;20103;-87
2023/04/15 02:54:16;;;;;;;;;;;8.20;99.90;;;;;;5054565;28;20029;-88
2023/04/15 02:56:42;;;;;;;6.60;4.38;;;8.30;99.90;;;;;;5054057;28;19909;-88
2023/04/15 02:59:07;;;;;;;;;;;8.30;99.90;;;;;;5055472;28;20102;-88
2023/04/15 03:01:33;;;;;;;5.90;4.30;;;8.20;99.90;;;;;;5053956;28;19905;-89
2023/04/15 03:03:58;;;;;;;;;;;8.10;99.90;;;;;;5054015;28;20075;-89
2023/04/15 03:06:24;;;;;;;7.68;4.53;;;8.00;99.90;;;;;;5053591;28;20008;-89
2023/04/15 03:08:50;;;;;;;;;;;8.00;99.90;;;;;;5054543;28;20025;-89
2023/04/15 03:11:15;;;;;;;6.20;4.72;;;7.80;99.90;;;;;;5053893;28;20456;-89
2023/04/15 03:13:42;;;;;;;6.63;4.25;;;7.80;99.90;;;;;;5053365;28;20017;-88
2023/04/15 03:16:08;;;;;;;6.13;4.43;;;7.80;99.90;;;;;;5053582;28;20120;-88
2023/04/15 03:18:34;;;;;;;7.30;4.80;;;7.90;99.90;;;;;;5053545;28;20025;-88
2023/04/15 03:20:59;;;;;;;;;;;7.80;99.90;;;;;;5053944;28;20035;-88
2023/04/15 03:23:25;;;;;;;6.50;4.85;;;7.80;99.90;;;;;;5053307;28;19909;-88
2023/04/15 03:25:51;;;;;;;;;;;7.80;99.90;;;;;;5053342;28;20043;-88
2023/04/15 03:28:16;;;;;;;7.40;5.88;;;7.70;99.90;;;;;;5051918;28;20284;-88
2023/04/15 03:30:42;;;;;;;;;;;7.60;99.90;;;;;;5053357;28;20698;-89
2023/04/15 03:33:07;;;;;;;8.65;6.13;;;7.60;99.90;;;;;;5052757;28;19909;-88
2023/04/15 03:35:33;;;;;;;;;;;7.80;99.90;;;;;;5054127;28;20033;-88
2023/04/15 03:37:59;;;;;;;10.75;7.25;;;7.80;99.90;;;;;;5052909;28;19905;-88
2023/04/15 03:40:25;;;;;;;;;;;7.80;99.90;;;;;;5053400;28;20116;-88
2023/04/15 03:42:50;;;;;;;10.98;8.45;;;7.80;99.90;;;;;;5053064;28;19905;-89
2023/04/15 03:45:16;;;;;;;;;;;7.80;99.90;;;;;;5053305;28;20029;-89
2023/04/15 03:47:41;;;;;;;13.63;9.95;;;7.80;99.90;;;;;;5053010;28;19984;-89
2023/04/15 03:50:07;;;;;;;;;;;7.60;99.90;;;;;;5052891;28;20524;-89
2023/04/15 03:52:33;;;;;;;12.30;9.48;;;7.50;99.90;;;;;;5053119;28;20277;-88
2023/04/15 03:54:58;;;;;;;;;;;7.70;99.90;;;;;;5052963;28;20013;-89
2023/04/15 03:57:24;;;;;;;18.00;11.35;;;7.60;99.90;;;;;;5052461;28;19911;-89
2023/04/15 03:59:50;;;;;;;;;;;7.80;99.90;;;;;;5052568;28;20017;-88
2023/04/15 04:02:16;;;;;;;18.60;12.35;;;7.80;99.90;;;;;;5052398;28;19955;-89
2023/04/15 04:04:42;;;;;;;;;;;7.80;99.90;;;;;;5053233;28;20036;-88
2023/04/15 04:07:08;;;;;;;25.17;17.70;;;7.60;99.90;;;;;;5052748;28;19915;-87
2023/04/15 04:09:33;;;;;;;;;;;7.50;99.90;;;;;;5052750;28;20021;-88
2023/04/15 04:11:59;;;;;;;24.67;19.05;;;7.50;99.90;;;;;;5052165;28;20369;-88
2023/04/15 04:14:28;;;;;;;;;;;7.60;99.90;;;;;;5052461;28;20375;-88
2023/04/15 04:16:54;;;;;;;29.23;19.85;;;7.50;99.90;;;;;;5051882;28;20026;-89
2023/04/15 04:19:20;;;;;;;28.52;19.73;;;7.60;99.90;;;;;;5052399;28;20055;-89
2023/04/15 04:21:45;;;;;;;;;;;7.60;99.90;;;;;;5051179;28;20025;-86
2023/04/15 04:24:11;;;;;;;27.50;20.65;;;7.70;99.90;;;;;;5050117;28;19920;-87
2023/04/15 04:26:37;;;;;;;;;;;7.70;99.90;;;;;;5053570;28;20469;-89
2023/04/15 04:29:02;;;;;;;23.95;18.15;;;7.60;99.90;;;;;;5050247;28;20392;-89
2023/04/15 04:31:28;;;;;;;;;;;7.60;99.90;;;;;;5052398;28;20029;-88
2023/04/15 04:33:53;;;;;;;22.40;17.10;;;7.60;99.90;;;;;;5052062;28;19905;-88
2023/04/15 04:36:19;;;;;;;;;;;7.60;99.90;;;;;;5052612;28;20039;-89
2023/04/15 04:38:45;;;;;;;20.83;15.75;;;7.70;99.90;;;;;;5052184;28;20027;-88
2023/04/15 04:41:10;;;;;;;;;;;7.80;99.90;;;;;;5052234;28;20031;-88
2023/04/15 04:43:36;;;;;;;14.90;12.57;;;7.80;99.90;;;;;;5051366;28;19927;-89
2023/04/15 04:46:01;;;;;;;;;;;7.90;99.90;;;;;;5055809;28;20005;-88
2023/04/15 04:48:27;;;;;;;9.57;6.05;;;7.90;99.90;;;;;;5049331;28;19905;-88
2023/04/15 04:50:53;;;;;;;;;;;8.00;99.90;;;;;;5051939;28;20059;-89
2023/04/15 04:53:18;;;;;;;13.63;6.10;;;8.10;99.90;;;;;;5051588;28;19908;-84
2023/04/15 04:55:44;;;;;;;;;;;8.10;99.90;;;;;;5051421;28;20025;-87
2023/04/15 04:58:10;;;;;;;9.30;5.10;;;8.20;99.90;;;;;;5051053;28;19954;-88
2023/04/15 05:00:37;;;;;;;;;;;8.30;99.90;;;;;;5051543;28;20036;-86
2023/04/15 05:03:03;;;;;;;8.70;5.90;;;8.50;99.90;;;;;;5051174;28;19912;-88
2023/04/15 05:05:28;;;;;;;;;;;8.70;99.90;;;;;;5051795;28;20389;-86
2023/04/15 05:07:54;;;;;;;5.93;5.10;;;8.80;99.90;;;;;;5055114;28;19915;-87
2023/04/15 05:10:19;;;;;;;;;;;8.90;99.90;;;;;;5054608;28;20063;-86
2023/04/15 05:12:45;;;;;;;5.82;3.53;;;9.10;99.90;;;;;;5055227;28;20372;-87
2023/04/15 05:15:11;;;;;;;;;;;9.20;99.90;;;;;;5055772;28;20068;-88
2023/04/15 05:17:37;;;;;;;8.65;7.25;;;9.50;99.90;;;;;;5055383;28;19913;-87
2023/04/15 05:20:02;;;;;;;;;;;9.80;99.90;;;;;;5055881;28;20020;-86
2023/04/15 05:22:28;;;;;;;8.68;7.15;;;10.40;99.90;;;;;;5055334;28;20404;-88
2023/04/15 05:24:54;;;;;;;;;;;11.10;99.90;;;;;;5055627;28;20025;-87
2023/04/15 05:27:21;;;;;;;6.32;3.22;;;11.70;99.90;;;;;;5055400;28;19905;-89
2023/04/15 05:29:47;;;;;;;7.45;4.30;;;12.40;99.90;;;;;;5054824;28;20502;-88
2023/04/15 05:32:12;;;;;;;;;;;13.20;99.90;;;;;;5055343;28;20029;-86
2023/04/15 05:34:38;;;;;;;10.82;6.53;;;13.40;99.90;;;;;;5053279;28;19905;-85
2023/04/15 05:37:12;;;;;;;7.47;3.22;;;13.40;99.90;;;;;;5054027;28;20033;-85
2023/04/15 05:39:39;;;;;;;5.28;2.65;;;13.70;99.90;;;;;;5053081;28;20021;-86
2023/04/15 05:42:05;;;;;;;3.47;2.40;;;14.10;99.90;;;;;;5055946;28;20029;-87
2023/04/15 05:44:31;;;;;;;5.95;2.20;;;14.70;99.90;;;;;;5055032;28;20504;-87
2023/04/15 05:46:57;;;;;;;8.77;2.55;;;14.80;98.70;;;;;;5054906;28;20021;-87
2023/04/15 05:49:22;;;;;;;7.68;3.35;;;14.20;99.30;;;;;;5056082;28;20078;-87
2023/04/15 05:51:48;;;;;;;4.20;2.58;;;13.70;99.90;;;;;;5054128;28;20052;-85
2023/04/15 05:54:17;;;;;;;4.43;2.85;;;13.70;99.90;;;;;;5054394;28;20017;-83
2023/04/15 05:56:43;;;;;;;3.25;2.22;;;13.40;99.90;;;;;;5054142;28;20572;-86
2023/04/15 05:59:09;;;;;;;6.00;1.88;;;13.30;99.90;;;;;;5055747;28;20067;-89
2023/04/15 06:01:34;;;;;;;4.20;1.50;;;13.70;99.90;;;;;;5055276;28;20052;-90
2023/04/15 06:04:00;;;;;;;3.28;1.83;;;13.70;98.90;;;;;;5054634;28;20025;-84
2023/04/15 06:06:26;;;;;;;9.05;2.28;;;13.80;97.60;;;;;;5053000;28;20527;-86
2023/04/15 06:08:52;;;;;;;6.18;1.85;;;13.50;98.50;;;;;;5054199;28;20036;-86
2023/04/15 06:11:20;;;;;;;8.05;3.65;;;13.90;99.90;;;;;;5054372;28;20047;-86
2023/04/15 06:13:46;;;;;;;4.80;2.33;;;14.20;98.10;;;;;;5054544;28;20497;-88
2023/04/15 06:16:12;;;;;;;5.22;3.22;;;14.80;96.00;;;;;;5054939;28;20029;-88
2023/04/15 06:18:38;;;;;;;2.92;1.48;;;15.00;92.30;;;;;;5053346;28;20021;-88
2023/04/15 06:21:04;;;;;;;8.07;2.33;;;15.00;91.20;;;;;;5051545;28;20455;-84
2023/04/15 06:23:29;;;;;;;4.75;2.00;;;15.50;91.40;;;;;;5053801;28;20025;-86
2023/04/15 06:25:55;;;;;;;3.33;1.15;;;16.20;86.90;;;;;;5052815;28;20032;-85
2023/04/15 06:28:21;;;;;;;2.60;1.27;;;16.90;85.30;;;;;;5052575;28;20074;-86
2023/04/15 06:30:46;;;;;;;1.75;0.77;;;17.80;76.30;;;;;;5052618;28;20037;-85
2023/04/15 06:33:12;;;;;;;4.82;2.72;;;17.80;72.30;;;;;;5052585;28;20064;-86
2023/04/15 06:35:38;;;;;;;3.28;1.70;;;17.80;71.40;;;;;;5052125;28;20056;-85
2023/04/15 06:38:04;;;;;;;9.20;5.55;;;17.70;71.70;;;;;;5054334;28;20061;-88
2023/04/15 06:40:30;;;;;;;6.72;3.72;;;17.00;69.40;;;;;;5052379;28;20052;-88
2023/04/15 06:42:56;;;;;;;2.22;0.70;;;16.50;70.70;;;;;;5053783;28;20037;-89
2023/04/15 06:45:22;;;;;;;4.22;2.38;;;15.90;72.40;;;;;;5053978;28;20401;-89
2023/04/15 06:47:47;;;;;;;2.15;0.70;;;15.80;73.60;;;;;;5053465;28;20052;-88
2023/04/15 06:50:13;;;;;;;3.45;1.52;;;16.30;77.00;;;;;;5053790;28;20044;-88
2023/04/15 06:52:39;;;;;;;1.80;0.95;;;16.50;72.50;;;;;;5053281;28;20071;-88
2023/04/15 06:55:05;;;;;;;3.53;1.60;;;16.20;73.80;;;;;;5052500;28;20029;-84
2023/04/15 06:57:31;;;;;;;2.78;1.67;;;15.60;77.00;;;;;;5051487;28;20043;-86
2023/04/15 06:59:57;;;;;;;4.22;2.35;;;15.40;78.70;;;;;;5050416;28;20024;-86
2023/04/15 07:02:22;;;;;;;3.78;0.80;;;14.60;78.00;;;;;;5052098;28;20553;-85
2023/04/15 07:04:48;;;;;;;5.45;3.00;;;14.10;83.40;;;;;;5053294;28;20524;-86
2023/04/15 07:07:15;;;;;;;6.47;2.92;;;13.70;91.30;;;;;;5052223;28;20057;-85
2023/04/15 07:09:41;;;;;;;8.10;2.90;;;13.40;94.20;;;;;;5052069;28;20817;-83
2023/04/15 07:12:07;;;;;;;4.80;1.90;;;13.20;99.90;;;;;;5051043;28;20101;-85
2023/04/15 07:14:32;;;;;;;;;;;13.40;99.90;;;;;;5052162;28;20029;-84
2023/04/15 07:16:58;;;;;;;11.57;6.50;;;13.40;99.90;;;;;;5051488;28;19905;-83
2023/04/15 07:19:24;;;;;;;5.95;3.08;;;13.40;99.70;;;;;;5051809;28;20086;-84
2023/04/15 07:21:50;;;;;;;;;;;13.10;99.90;;;;;;5052565;28;20107;-86
2023/04/15 07:24:17;;;;;;;3.00;1.88;;;13.00;99.90;;;;;;5054213;28;19963;-87
2023/04/15 07:26:43;;;;;;;6.22;4.20;;;12.70;99.90;;;;;;5052931;28;20036;-87
2023/04/15 07:29:09;;;;;;;5.68;4.43;;;12.50;99.90;;;;;;5053822;28;20028;-86
2023/04/15 07:31:35;;;;;;;6.68;3.67;;;12.40;99.90;;;;;;5051561;28;20616;-86
2023/04/15 07:34:02;;;;;;;4.00;1.48;;;12.30;99.90;;;;;;5052592;28;20024;-87
2023/04/15 07:36:28;;;;;;;4.53;3.08;;;12.80;99.90;;;;;;5053345;28;20040;-89
2023/04/15 07:38:54;;;;;;;;;;;13.20;99.90;;;;;;5054430;28;20021;-88
2023/04/15 07:41:20;;;;;;;5.00;2.25;;;13.50;99.90;;;;;;5053315;28;19908;-88
2023/04/15 07:43:47;;;;;;;6.07;2.78;;;13.90;99.20;;;;;;5052412;28;20060;-88
2023/04/15 07:46:13;;;;;;;6.97;3.47;;;14.50;99.40;;;;;;5052077;28;20025;-85
2023/04/15 07:48:39;;;;;;;4.60;3.03;;;15.30;95.00;;;;;;5052866;28;20021;-86
2023/04/15 07:51:05;;;;;;;3.88;1.23;;;15.80;91.60;;;;;;5051581;28;20053;-85
2023/04/15 07:53:32;;;;;;;12.95;6.03;;;16.40;83.20;;;;;;5051152;28;20025;-86
2023/04/15 07:55:58;;;;;;;4.80;2.40;;;16.30;85.20;;;;;;5050861;28;20067;-84
2023/04/15 07:58:23;;;;;;;4.88;2.35;;;15.40;85.60;;;;;;5050770;28;20052;-85
2023/04/15 08:00:50;;;;;;;6.43;2.08;;;14.50;90.70;;;;;;5051580;28;20028;-86
2023/04/15 08:03:16;;;;;;;10.13;3.15;;;13.80;95.70;;;;;;5052510;28;20026;-86
2023/04/15 08:05:41;;;;;;;8.55;2.88;;;13.20;99.90;;;;;;5051861;28;20047;-85
2023/04/15 08:08:07;;;;;;;6.28;2.65;;;13.00;99.90;;;;;;5051793;28;20393;-86
2023/04/15 08:10:33;;;;;;;;;;;12.70;99.90;;;;;;5051090;28;20497;-86
2023/04/15 08:12:58;;;;;;;2.95;1.58;;;12.60;99.90;;;;;;5049883;28;19908;-86
2023/04/15 08:15:25;;;;;;;4.25;1.40;;;12.90;99.90;;;;;;5051510;28;20037;-85
2023/04/15 08:17:51;;;;;;;3.20;1.00;;;12.80;99.90;;;;;;5050518;28;20028;-83
2023/04/15 08:20:16;;;;;;;;;;;13.30;99.90;;;;;;5052882;28;20025;-87
2023/04/15 08:22:42;;;;;;;2.90;1.33;;;13.80;99.30;;;;;;5052050;28;19905;-90
2023/04/15 08:25:09;;;;;;;3.83;1.67;;;14.10;97.00;;;;;;5052237;28;20059;-88
2023/04/15 08:27:35;;;;;;;6.53;3.60;;;14.40;95.80;;;;;;5051976;28;20029;-88
2023/04/15 08:30:00;;;;;;;4.68;1.45;;;14.90;95.90;;;;;;5051957;28;20393;-88
2023/04/15 08:32:26;;;;;;;4.80;1.00;;;15.70;90.40;;;;;;5051374;28;20041;-88
2023/04/15 08:34:52;;;;;;;2.28;0.90;;;16.40;84.20;;;;;;5051911;28;20047;-87
2023/04/15 08:37:18;;;;;;;1.92;1.00;;;17.10;80.50;;;;;;5050265;28;20040;-87
2023/04/15 08:39:45;;;;;;;3.05;0.70;;;17.40;74.40;;;;;;5049481;28;20063;-85
2023/04/15 08:42:14;;;;;;;2.80;0.80;;;17.80;73.70;;;;;;5047591;28;20405;-85
2023/04/15 08:44:40;;;;;;;1.65;0.60;;;18.10;72.20;;;;;;5049930;28;20111;-85
2023/04/15 08:47:07;;;;;;;2.33;0.60;;;19.00;70.00;;;;;;5051000;28;20025;-85
2023/04/15 08:49:38;;;;;;;4.85;0.50;;;19.10;66.70;;;;;;5049485;28;20076;-87
2023/04/15 08:52:06;;;;;;;2.53;1.13;;;18.70;65.80;;;;;;5051284;28;20053;-89
2023/04/15 08:54:36;;;;;;;3.33;0.50;;;18.30;66.90;;;;;;5050441;28;20036;-84
2023/04/15 08:57:02;;;;;;;1.35;0.68;;;17.90;67.90;;;;;;5050031;28;20378;-84
2023/04/15 08:59:31;;;;;;;1.33;0.70;;;18.30;67.80;;;;;;5049267;28;20021;-86
2023/04/15 09:01:57;;;;;;;2.45;0.70;;;19.20;69.50;;;;;;5049193;28;20033;-86
2023/04/15 09:04:23;;;;;;;1.45;0.60;;;20.00;64.20;;;;;;5050974;28;20017;-88
2023/04/15 09:06:49;;;;;;;1.42;0.65;;;19.70;61.40;;;;;;5049477;28;20029;-87
2023/04/15 09:09:14;;;;;;;5.88;1.15;;;19.70;61.80;;;;;;5050380;28;20025;-85
2023/04/15 09:11:41;;;;;;;1.23;0.57;;;19.70;63.40;;;;;;5048221;28;20506;-85
2023/04/15 09:14:07;;;;;;;1.98;0.65;;;19.70;64.20;;;;;;5047115;28;20052;-88
2023/04/15 09:16:57;;;;;;;1.63;0.60;;;19.50;61.50;;;;;;5047771;28;20025;-85
2023/04/15 09:19:23;;;;;;;1.30;0.68;;;19.10;63.00;;;;;;5048425;28;20021;-86
2023/04/15 09:21:52;;;;;;;2.53;0.60;;;18.70;63.80;;;;;;5049198;28;20047;-86
2023/04/15 09:24:18;;;;;;;3.00;1.05;;;18.20;66.60;;;;;;5050010;28;20098;-86
2023/04/15 09:26:44;;;;;;;2.17;0.75;;;18.00;68.30;;;;;;5051695;28;20025;-88
2023/04/15 09:29:13;;;;;;;3.80;0.80;;;18.20;67.90;;;;;;5050824;28;20033;-86
2023/04/15 09:31:41;;;;;;;2.35;0.70;;;17.90;69.80;;;;;;5050362;28;20049;-87
2023/04/15 09:34:07;;;;;;;1.60;0.70;;;17.50;70.70;;;;;;5048809;28;20028;-85
2023/04/15 09:36:46;;;;;;;2.22;0.93;;;16.80;74.20;;;;;;5050924;28;20397;-87
2023/04/15 09:39:12;;;;;;;4.43;1.40;;;15.90;86.00;;;;;;5050965;28;20041;-87
2023/04/15 09:41:39;;;;;;;1.23;0.60;;;15.30;95.70;;;;;;5051154;28;20036;-87
2023/04/15 09:44:05;;;;;;;5.30;1.00;;;15.20;99.90;;;;;;5050688;28;20018;-85
2023/04/15 09:46:45;;;;;;;1.63;0.68;;;15.50;99.90;;;;;;5048645;28;20036;-86
2023/04/15 09:49:11;;;;;;;1.98;0.60;;;16.40;98.00;;;;;;5051423;28;20100;-87
2023/04/15 09:51:38;;;;;;;2.40;0.95;;;17.20;92.30;;;;;;5048594;28;20436;-87
2023/04/15 09:54:04;;;;;;;2.30;1.08;;;17.70;86.90;;;;;;5050596;28;20036;-86
2023/04/15 09:56:40;;;;;;;3.38;1.55;;;18.00;82.60;;;;;;5053356;28;20123;-87
2023/04/15 09:59:06;;;;;;;2.90;0.90;;;18.30;80.50;;;;;;5051719;28;20459;-87
2023/04/15 10:01:32;;;;;;;2.30;0.82;;;18.20;77.50;;;;;;5056980;28;20036;-87
2023/04/15 10:04:00;;;;;;;3.08;0.85;;;18.00;76.70;;;;;;5051959;28;20402;-85
2023/04/15 10:06:26;;;;;;;2.13;1.42;;;17.70;76.20;;;;;;5053823;28;20502;-85
2023/04/15 10:08:53;;;;;;;2.53;1.10;;;17.40;78.20;;;;;;5053949;28;20024;-87
2023/04/15 10:11:22;;;;;;;1.88;0.80;;;17.00;81.20;;;;;;5051706;28;20075;-86
2023/04/15 10:13:49;;;;;;;1.67;0.63;;;16.60;77.90;;;;;;5052370;28;20511;-86
2023/04/15 10:16:18;;;;;;;4.22;0.30;;;16.30;75.30;;;;;;5051530;28;20155;-86
2023/04/15 10:18:45;;;;;;;3.42;0.30;;;16.20;72.20;;;;;;5051090;28;20493;-87
2023/04/15 10:21:17;;;;;;;0.80;0.30;;;15.70;71.90;;;;;;5052058;28;20033;-87
2023/04/15 10:23:44;;;;;;;0.43;0.20;;;15.10;72.40;;;;;;5052587;28;20489;-87
2023/04/15 10:26:14;;;;;;;0.57;0.20;;;14.50;75.60;;;;;;5053516;28;20044;-87
2023/04/15 10:28:50;;;;;;;1.05;0.20;;;13.90;78.20;;;;;;5053511;28;20021;-86
2023/04/15 10:31:17;;;;;;;0.30;0.20;;;13.40;82.90;;;;;;5054987;28;20404;-87
2023/04/15 10:33:44;;;;;;;0.80;0.45;;;13.20;89.70;;;;;;5053661;28;20037;-86
2023/04/15 10:36:11;;;;;;;1.80;0.30;;;13.30;92.50;;;;;;5054590;28;20912;-86
2023/04/15 10:38:44;;;;;;;0.68;0.30;;;13.30;92.70;;;;;;5054374;28;20025;-87
2023/04/15 10:41:26;;;;;;;0.80;0.20;;;13.70;95.90;;;;;;5053698;28;20049;-86
2023/04/15 10:43:58;;;;;;;1.08;0.63;;;14.10;93.50;;;;;;5052751;28;20482;-86
2023/04/15 10:46:44;;;;;;;3.05;0.70;;;14.60;91.10;;;;;;5050709;28;20482;-85
2023/04/15 10:49:15;;;;;;;3.43;0.70;;;15.00;92.60;;;;;;5051694;28;20033;-85
2023/04/15 10:51:50;;;;;;;6.90;3.85;;;15.10;84.10;;;;;;5052869;28;20057;-87
2023/04/15 10:54:25;;;;;;;4.18;1.23;;;15.30;87.30;;;;;;5052818;28;20074;-88
2023/04/15 10:57:01;;;;;;;1.73;0.63;;;15.50;88.60;;;;;;5052800;28;20486;-87
2023/04/15 10:59:30;;;;;;;;;;;15.70;86.30;;;;;;5053306;28;20024;-87
2023/04/15 11:02:00;;;;;;;1.38;0.57;;;15.70;84.60;;;;;;5052914;28;19912;-85
2023/04/15 11:04:51;;;;;;;1.85;0.85;;;15.80;86.50;;;;;;5052286;28;20276;-85
2023/04/15 11:07:33;;;;;;;2.83;0.82;;;15.70;85.20;;;;;;5052491;28;20025;-87
2023/04/15 11:09:58;;;;;;;1.60;0.80;;;15.50;87.40;;;;;;5052137;28;20025;-84
2023/04/15 11:12:35;;;;;;;1.33;0.60;;;15.70;85.30;;;;;;5050832;28;20037;-87
2023/04/15 11:15:25;;;;;;;1.77;0.68;;;15.70;81.00;;;;;;5051196;28;20021;-86
2023/04/15 11:17:51;;;;;;;1.83;0.82;;;15.70;85.80;;;;;;5050997;28;20139;-86
2023/04/15 11:20:17;;;;;;;1.52;0.60;;;15.60;88.10;;;;;;5054285;28;20052;-87
2023/04/15 11:22:51;;;;;;;1.50;0.80;;;15.40;86.70;;;;;;5053065;28;20090;-85
2023/04/15 11:25:27;;;;;;;1.92;0.65;;;15.30;87.00;;;;;;5054065;28;20025;-87
2023/04/15 11:27:54;;;;;;;0.98;0.47;;;15.20;87.10;;;;;;5050160;28;20152;-85
2023/04/15 11:30:22;;;;;;;1.40;0.40;;;15.20;85.20;;;;;;5050703;28;20032;-85
2023/04/15 11:32:53;;;;;;;3.50;0.40;;;15.20;85.00;;;;;;5051605;28;20409;-87
2023/04/15 11:35:19;;;;;;;5.28;0.20;;;15.20;88.10;;;;;;5051430;28;20104;-84
2023/04/15 11:37:45;;;;;;;1.80;0.35;;;15.00;88.50;;;;;;5051114;28;20040;-84
2023/04/15 11:40:12;;;;;;;0.75;0.25;;;14.30;90.70;;;;;;5050637;28;20449;-86
2023/04/15 11:42:38;;;;;;;0.93;0.30;;;13.90;93.60;;;;;;5051098;28;20032;-85
2023/04/15 11:45:14;;;;;;;;;;;13.50;98.10;;;;;;5053067;28;20017;-86
2023/04/15 11:47:41;;;;;;;0.73;0.30;;;13.30;99.90;;;;;;5052909;28;19926;-86
2023/04/15 11:50:23;;;;;;;0.75;0.30;;;13.30;99.90;;;;;;5052202;28;20061;-86
2023/04/15 11:53:03;;;;;;;0.52;0.28;;;13.40;99.90;;;;;;5052483;28;20033;-86
2023/04/15 11:55:30;;;;;;;1.98;0.30;;;13.70;99.90;;;;;;5052609;28;20024;-86
2023/04/15 11:58:16;;;;;;;0.70;0.50;;;13.80;99.90;;;;;;5051443;28;20029;-86
2023/04/15 12:00:53;;;;;;;5.55;0.50;;;14.00;99.90;;;;;;5052712;28;20162;-86
2023/04/15 12:03:29;;;;;;;0.50;0.22;;;14.30;99.90;;;;;;5052559;28;20071;-87
2023/04/15 12:06:22;;;;;;;1.63;0.40;;;14.50;99.90;;;;;;5051857;28;20040;-86
2023/04/15 12:08:52;;;;;;;1.48;0.50;;;14.70;99.60;;;;;;5051221;28;20024;-87
2023/04/15 12:11:38;;;;;;;2.72;0.60;;;14.60;98.80;;;;;;5050901;28;20040;-86
2023/04/15 12:14:19;;;;;;;1.02;0.30;;;14.70;93.50;;;;;;5050016;28;20095;-86
2023/04/15 12:16:50;;;;;;;0.95;0.40;;;14.60;88.70;;;;;;5051535;28;20033;-87
2023/04/15 12:19:18;;;;;;;0.75;0.30;;;14.60;88.60;;;;;;5050707;28;20029;-85
2023/04/15 12:21:46;;;;;;;2.20;0.47;;;14.70;83.40;;;;;;5050082;28;20493;-84
2023/04/15 12:24:12;;;;;;;1.98;0.32;;;14.60;82.50;;;;;;5050071;28;20127;-86
2023/04/15 12:26:50;;;;;;;0.40;0.22;;;14.60;85.20;;;;;;5051110;28;20666;-87
2023/04/15 12:29:17;;;;;;;0.80;0.30;;;14.50;88.80;;;;;;5050346;28;20032;-86
2023/04/15 12:32:06;;;;;;;2.75;0.40;;;14.30;91.10;;;;;;5050104;28;20136;-85
2023/04/15 12:34:34;;;;;;;6.15;1.20;;;14.20;90.90;;;;;;5039753;28;20060;-87
2023/04/15 12:37:02;;;;;;;6.15;1.30;;;13.90;93.30;;;;;;5049305;28;20025;-87
2023/04/15 12:39:30;;;;;;;4.40;1.50;;;13.70;93.60;;;;;;5049949;28;20028;-85
2023/04/15 12:41:55;;;;;;;5.72;1.85;;;13.60;95.00;;;;;;5049540;28;20029;-87
2023/04/15 12:44:22;;;;;;;;;;;13.40;99.90;;;;;;5049525;28;20060;-85
2023/04/15 12:46:49;;;;;;;4.82;2.22;;;13.20;99.90;;;;;;5049174;28;20019;-86
2023/04/15 12:49:15;;;;;;;6.57;1.70;;;12.80;99.90;;;;;;5049948;28;20025;-87
2023/04/15 12:51:41;;;;;;;;;;;12.50;99.90;;;;;;5051702;28;20063;-88
2023/04/15 12:54:07;;;;;;;5.65;1.30;;;12.20;99.90;;;;;;5051943;28;20007;-87
2023/04/15 12:56:33;;;;;;;7.30;1.15;;;11.90;99.90;;;;;;5051602;28;20021;-88
2023/04/15 12:58:59;;;;;;;;;;;11.80;99.90;;;;;;5051893;28;20509;-88
2023/04/15 13:01:25;;;;;;;6.82;4.55;;;11.80;99.90;;;;;;5052820;28;20282;-88
2023/04/15 13:03:51;;;;;;;8.75;1.30;;;11.80;99.90;;;;;;5049852;28;20025;-87
2023/04/15 13:06:16;;;;;;;;;;;12.00;99.90;;;;;;5051078;28;20040;-88